createdAt,value
2024-04-16T00:01:25.141Z,3.28
2024-04-16T00:03:52.597Z,3.47
2024-04-16T00:06:19.985Z,3.83
2024-04-16T00:08:49.843Z,3.15
2024-04-16T00:11:17.187Z,3.80
2024-04-16T00:13:44.529Z,4.30
2024-04-16T00:16:11.929Z,4.07
2024-04-16T00:18:39.273Z,4.10
2024-04-16T00:21:06.893Z,4.07
2024-04-16T00:23:34.211Z,3.95
2024-04-16T00:26:01.546Z,3.92
2024-04-16T00:28:29.997Z,4.20
2024-04-16T00:30:57.480Z,4.30
2024-04-16T00:33:24.830Z,3.90
2024-04-16T00:35:52.169Z,4.10
2024-04-16T00:38:19.567Z,4.07
2024-04-16T00:40:46.889Z,4.38
2024-04-16T00:43:18.546Z,4.15
2024-04-16T00:45:56.318Z,3.80
2024-04-16T00:48:30.551Z,3.90
2024-04-16T00:50:58.730Z,4.20
2024-04-16T00:53:26.777Z,3.95
2024-04-16T00:55:54.243Z,3.90
2024-04-16T00:58:22.063Z,3.70
2024-04-16T01:00:49.458Z,3.53
2024-04-16T01:03:16.779Z,4.43
2024-04-16T01:05:44.273Z,3.95
2024-04-16T01:08:11.988Z,3.53
2024-04-16T01:10:43.452Z,4.28
2024-04-16T01:13:11.063Z,3.75
2024-04-16T01:15:38.465Z,3.40
2024-04-16T01:18:08.376Z,4.13
2024-04-16T01:20:36.203Z,3.30
2024-04-16T01:23:03.623Z,3.10
2024-04-16T01:25:33.297Z,3.00
2024-04-16T01:28:00.839Z,3.22
2024-04-16T01:30:28.368Z,3.42
2024-04-16T01:32:55.767Z,3.92
2024-04-16T01:35:23.159Z,3.88
2024-04-16T01:37:50.452Z,3.13
2024-04-16T01:40:17.847Z,3.35
2024-04-16T01:42:45.171Z,3.70
2024-04-16T01:45:12.452Z,3.97
2024-04-16T01:47:39.818Z,3.72
2024-04-16T01:50:07.302Z,4.68
2024-04-16T01:52:37.786Z,3.67
2024-04-16T01:55:05.351Z,3.50
2024-04-16T01:57:32.699Z,3.40
2024-04-16T02:00:00.070Z,4.07
2024-04-16T02:02:27.888Z,3.95
2024-04-16T02:04:56.803Z,4.05
2024-04-16T02:07:24.886Z,3.45
2024-04-16T02:09:52.313Z,3.30
2024-04-16T02:12:19.606Z,3.45
2024-04-16T02:14:46.908Z,3.53
2024-04-16T02:17:14.256Z,3.30
2024-04-16T02:19:42.385Z,3.70
2024-04-16T02:22:09.789Z,3.33
2024-04-16T02:24:37.294Z,3.78
2024-04-16T02:27:04.907Z,3.53
2024-04-16T02:29:32.287Z,3.42
2024-04-16T02:31:59.617Z,3.03
2024-04-16T02:34:26.996Z,3.05
2024-04-16T02:36:54.288Z,3.30
2024-04-16T02:39:21.676Z,2.58
2024-04-16T02:41:49.024Z,2.95
2024-04-16T02:44:16.345Z,2.97
2024-04-16T02:46:43.694Z,2.33
2024-04-16T02:49:11.023Z,2.80
2024-04-16T02:51:38.710Z,2.92
2024-04-16T02:54:06.302Z,2.95
2024-04-16T02:56:33.631Z,3.08
2024-04-16T02:59:00.984Z,3.25
2024-04-16T03:01:28.871Z,3.13
2024-04-16T03:03:59.899Z,2.72
2024-04-16T03:06:27.269Z,2.40
2024-04-16T03:08:54.620Z,2.83
2024-04-16T03:11:22.006Z,2.35
2024-04-16T03:13:49.349Z,2.90
2024-04-16T03:16:16.734Z,2.70
2024-04-16T03:18:46.310Z,2.58
2024-04-16T03:21:13.659Z,2.30
2024-04-16T03:23:40.987Z,2.75
2024-04-16T03:26:08.300Z,2.60
2024-04-16T03:28:35.713Z,2.35
2024-04-16T03:31:03.089Z,2.33
2024-04-16T03:33:31.048Z,2.25
2024-04-16T03:35:58.463Z,2.33
2024-04-16T03:38:25.777Z,2.35
2024-04-16T03:40:58.121Z,2.42
2024-04-16T03:43:25.957Z,2.22
2024-04-16T03:45:56.978Z,2.03
2024-04-16T03:48:25.199Z,2.30
2024-04-16T03:50:52.961Z,2.13
2024-04-16T03:53:20.450Z,2.55
2024-04-16T03:55:50.394Z,2.35
2024-04-16T03:58:17.717Z,1.95
2024-04-16T04:01:03.744Z,2.50
2024-04-16T04:03:31.923Z,2.00
2024-04-16T04:05:59.619Z,2.10
2024-04-16T04:08:27.323Z,2.22
2024-04-16T04:10:54.988Z,2.20
2024-04-16T04:13:22.532Z,2.30
2024-04-16T04:15:49.844Z,2.00
2024-04-16T04:18:17.297Z,1.92
2024-04-16T04:20:47.648Z,2.30
2024-04-16T04:23:15.526Z,2.08
2024-04-16T04:25:43.061Z,2.15
2024-04-16T04:28:10.475Z,2.80
2024-04-16T04:30:38.288Z,2.28
2024-04-16T04:33:05.697Z,2.40
2024-04-16T04:35:33.175Z,2.28
2024-04-16T04:38:00.607Z,2.53
2024-04-16T04:40:27.992Z,3.00
2024-04-16T04:42:56.431Z,2.70
2024-04-16T04:45:23.799Z,3.45
2024-04-16T04:47:51.219Z,2.97
2024-04-16T04:50:18.566Z,3.30
2024-04-16T04:52:45.955Z,3.47
2024-04-16T04:55:13.358Z,3.30
2024-04-16T04:57:42.816Z,3.75
2024-04-16T05:02:38.193Z,4.22
2024-04-16T05:05:05.804Z,3.78
2024-04-16T05:07:33.284Z,4.50
2024-04-16T05:10:00.648Z,3.80
2024-04-16T05:12:27.998Z,4.03
2024-04-16T05:14:55.335Z,3.65
2024-04-16T05:17:22.878Z,3.72
2024-04-16T05:19:50.249Z,3.42
2024-04-16T05:22:17.626Z,4.05
2024-04-16T05:24:44.998Z,4.03
2024-04-16T05:27:12.310Z,3.33
2024-04-16T05:29:39.660Z,3.53
2024-04-16T05:32:09.192Z,3.00
2024-04-16T05:34:36.626Z,3.20
2024-04-16T05:37:05.063Z,3.22
2024-04-16T05:39:32.476Z,3.50
2024-04-16T05:41:59.860Z,3.00
2024-04-16T05:44:27.237Z,3.60
2024-04-16T05:46:56.191Z,3.10
2024-04-16T05:49:23.666Z,3.42
2024-04-16T05:51:50.994Z,3.60
2024-04-16T05:54:18.405Z,3.88
2024-04-16T05:56:45.823Z,4.07
2024-04-16T05:59:13.214Z,4.20
2024-04-16T06:01:40.568Z,4.72
2024-04-16T06:04:07.983Z,4.32
2024-04-16T06:06:35.347Z,4.65
2024-04-16T06:09:02.648Z,4.97
2024-04-16T06:11:31.899Z,4.80
2024-04-16T06:13:59.955Z,5.55
2024-04-16T06:16:30.453Z,6.00
2024-04-16T06:18:57.857Z,5.82
2024-04-16T06:21:25.177Z,5.05
2024-04-16T06:23:52.492Z,5.10
2024-04-16T06:26:19.802Z,5.00
2024-04-16T06:28:47.214Z,5.63
2024-04-16T06:31:17.003Z,5.47
2024-04-16T06:33:44.768Z,3.90
2024-04-16T06:36:12.176Z,4.43
2024-04-16T06:38:39.475Z,4.63
2024-04-16T06:41:06.787Z,4.60
2024-04-16T06:43:34.231Z,5.13
2024-04-16T06:46:01.708Z,4.93
2024-04-16T06:48:31.905Z,3.95
2024-04-16T06:50:59.378Z,4.72
2024-04-16T06:53:26.683Z,3.97
2024-04-16T06:56:04.128Z,5.00
2024-04-16T06:58:31.788Z,4.57
2024-04-16T07:00:59.315Z,4.13
2024-04-16T07:03:26.693Z,3.80
2024-04-16T07:05:54.094Z,4.15
2024-04-16T07:08:21.450Z,4.45
2024-04-16T07:10:48.810Z,3.13
2024-04-16T07:13:19.765Z,3.65
2024-04-16T07:15:47.550Z,3.28
2024-04-16T07:18:15.246Z,3.38
2024-04-16T07:20:51.831Z,3.03
2024-04-16T07:23:19.177Z,3.05
2024-04-16T07:25:48.071Z,3.20
2024-04-16T07:28:15.526Z,3.03
2024-04-16T07:30:43.101Z,2.83
2024-04-16T07:33:10.994Z,3.20
2024-04-16T07:35:38.487Z,3.05
2024-04-16T07:38:05.891Z,3.35
2024-04-16T07:40:33.388Z,2.72
2024-04-16T07:43:01.793Z,3.20
2024-04-16T07:45:29.095Z,3.63
2024-04-16T07:47:56.562Z,2.72
2024-04-16T07:50:24.063Z,3.30
2024-04-16T07:52:51.396Z,2.65
2024-04-16T07:55:18.735Z,2.97
2024-04-16T07:57:46.059Z,3.10
2024-04-16T08:00:13.873Z,2.95
2024-04-16T08:02:41.242Z,3.00
2024-04-16T08:05:08.611Z,2.80
2024-04-16T08:07:37.341Z,2.80
2024-04-16T08:10:05.059Z,3.60
2024-04-16T08:12:32.437Z,2.78
2024-04-16T08:15:00.846Z,2.85
2024-04-16T08:17:28.258Z,3.03
2024-04-16T08:19:55.663Z,2.58
2024-04-16T08:22:23.349Z,2.90
2024-04-16T08:24:53.894Z,3.35
2024-04-16T08:27:24.852Z,3.40
2024-04-16T08:29:55.347Z,3.00
2024-04-16T08:32:22.966Z,3.17
2024-04-16T08:34:50.444Z,2.83
2024-04-16T08:37:17.867Z,2.78
2024-04-16T08:39:45.224Z,2.83
2024-04-16T08:42:13.737Z,2.55
2024-04-16T08:44:42.892Z,2.70
2024-04-16T08:47:11.380Z,2.88
2024-04-16T08:49:42.910Z,2.10
2024-04-16T08:52:11.433Z,1.95
2024-04-16T08:54:39.682Z,2.83
2024-04-16T08:57:07.034Z,2.25
2024-04-16T08:59:35.401Z,2.75
2024-04-16T09:02:03.096Z,2.70
2024-04-16T09:04:31.054Z,2.50
2024-04-16T09:06:58.458Z,2.55
2024-04-16T09:09:25.766Z,2.40
2024-04-16T09:11:54.297Z,2.30
2024-04-16T09:14:21.898Z,2.20
2024-04-16T09:16:49.789Z,2.13
2024-04-16T09:19:18.806Z,2.15
2024-04-16T09:21:46.124Z,2.20
2024-04-16T09:24:15.074Z,1.95
2024-04-16T09:26:42.398Z,2.60
2024-04-16T09:29:10.140Z,1.60
2024-04-16T09:31:37.668Z,2.40
2024-04-16T09:34:08.950Z,2.10
2024-04-16T09:36:36.678Z,2.70
2024-04-16T09:39:04.684Z,2.67
2024-04-16T09:41:32.376Z,2.47
2024-04-16T09:44:00.411Z,2.50
2024-04-16T09:46:28.881Z,2.42
2024-04-16T09:48:58.924Z,2.10
2024-04-16T09:51:26.576Z,1.80
2024-04-16T09:53:54.541Z,2.13
2024-04-16T09:56:22.138Z,1.90
2024-04-16T09:58:54.778Z,2.25
2024-04-16T10:01:22.522Z,2.10
2024-04-16T10:03:50.489Z,1.85
2024-04-16T10:06:17.850Z,1.92
2024-04-16T10:08:45.190Z,2.30
2024-04-16T10:11:17.913Z,1.80
2024-04-16T10:13:54.965Z,1.63
2024-04-16T10:16:22.338Z,1.73
2024-04-16T10:18:56.251Z,1.80
2024-04-16T10:21:25.023Z,1.75
2024-04-16T10:24:08.826Z,1.42
2024-04-16T10:26:43.508Z,1.30
2024-04-16T10:29:15.271Z,1.40
2024-04-16T10:31:45.202Z,1.73
2024-04-16T10:34:30.933Z,1.60
2024-04-16T10:36:58.694Z,1.23
2024-04-16T10:39:30.560Z,1.75
2024-04-16T10:42:02.703Z,1.30
2024-04-16T10:44:31.069Z,1.50
2024-04-16T10:46:59.299Z,1.40
2024-04-16T10:49:28.594Z,1.40
2024-04-16T10:54:23.395Z,1.45
2024-04-16T10:56:51.496Z,1.25
2024-04-16T10:59:19.995Z,1.58
2024-04-16T11:01:48.220Z,1.33
2024-04-16T11:04:20.677Z,1.27
2024-04-16T11:06:48.892Z,1.77
2024-04-16T11:09:16.877Z,1.20
2024-04-16T11:11:45.176Z,1.48
2024-04-16T11:14:12.952Z,1.90
2024-04-16T11:16:42.469Z,1.60
2024-04-16T11:19:10.463Z,1.70
2024-04-16T11:21:38.046Z,1.73
2024-04-16T11:24:05.741Z,1.73
2024-04-16T11:26:33.058Z,1.48
2024-04-16T11:29:00.398Z,1.90
2024-04-16T11:31:27.768Z,1.30
2024-04-16T11:33:56.208Z,1.63
2024-04-16T11:36:23.788Z,1.67
2024-04-16T11:38:56.303Z,0.90
2024-04-16T11:41:24.409Z,1.10
2024-04-16T11:43:51.949Z,1.48
2024-04-16T11:46:19.459Z,1.20
2024-04-16T11:48:47.045Z,1.10
2024-04-16T11:51:14.410Z,1.50
2024-04-16T11:53:41.907Z,1.52
2024-04-16T11:56:12.739Z,1.33
2024-04-16T11:58:41.348Z,1.15
2024-04-16T12:01:09.944Z,1.33
2024-04-16T12:03:37.538Z,1.02
2024-04-16T12:06:05.289Z,1.20
2024-04-16T12:08:32.591Z,1.30
2024-04-16T12:11:00.239Z,1.15
2024-04-16T12:13:27.740Z,1.23
2024-04-16T12:15:55.072Z,1.33
2024-04-16T12:18:22.457Z,1.15
2024-04-16T12:20:49.923Z,1.23
2024-04-16T12:23:17.538Z,1.00
2024-04-16T12:25:46.649Z,1.23
2024-04-16T12:28:15.520Z,1.17
2024-04-16T12:30:42.847Z,0.98
2024-04-16T12:33:15.671Z,1.58
2024-04-16T12:35:44.545Z,1.30
2024-04-16T12:38:11.897Z,1.10
2024-04-16T12:40:39.557Z,0.98
2024-04-16T12:43:07.008Z,1.10
2024-04-16T12:45:34.307Z,1.55
2024-04-16T12:48:01.707Z,0.90
2024-04-16T12:50:29.118Z,0.88
2024-04-16T12:52:56.424Z,1.30
2024-04-16T12:55:23.847Z,0.90
2024-04-16T12:57:51.918Z,0.82
2024-04-16T13:00:19.345Z,0.80
2024-04-16T13:02:49.575Z,0.93
2024-04-16T13:05:21.121Z,1.02
2024-04-16T13:07:48.665Z,0.80
2024-04-16T13:10:16.307Z,0.85
2024-04-16T13:12:43.742Z,1.10
2024-04-16T13:15:11.116Z,1.10
2024-04-16T13:17:38.580Z,0.90
2024-04-16T13:20:06.667Z,1.05
2024-04-16T13:22:34.279Z,1.10
2024-04-16T13:25:01.784Z,1.10
2024-04-16T13:27:29.114Z,0.95
2024-04-16T13:29:56.444Z,1.15
2024-04-16T13:32:23.948Z,1.00
2024-04-16T13:34:53.397Z,1.08
2024-04-16T13:37:22.199Z,1.15
2024-04-16T13:39:49.673Z,1.25
2024-04-16T13:42:17.169Z,1.20
2024-04-16T13:44:44.453Z,1.10
2024-04-16T13:47:11.827Z,1.20
2024-04-16T13:49:39.250Z,1.00
2024-04-16T13:52:06.616Z,1.20
2024-04-16T13:54:33.945Z,1.10
2024-04-16T13:57:01.244Z,1.25
2024-04-16T13:59:30.037Z,0.90
2024-04-16T14:01:58.781Z,0.90
2024-04-16T14:04:26.808Z,0.73
2024-04-16T14:06:54.162Z,0.60
2024-04-16T14:09:24.986Z,0.90
2024-04-16T14:11:52.615Z,1.20
2024-04-16T14:14:20.534Z,0.90
2024-04-16T14:16:47.993Z,0.90
2024-04-16T14:19:17.463Z,0.80
2024-04-16T14:21:46.167Z,0.80
2024-04-16T14:24:13.892Z,0.88
2024-04-16T14:26:41.261Z,0.93
2024-04-16T14:29:08.733Z,1.00
2024-04-16T14:31:36.115Z,0.75
2024-04-16T14:34:03.512Z,0.80
2024-04-16T14:36:30.853Z,1.05
2024-04-16T14:38:58.193Z,1.00
2024-04-16T14:41:25.585Z,1.20
2024-04-16T14:43:53.100Z,1.02
2024-04-16T14:46:20.624Z,1.20
2024-04-16T14:48:47.979Z,1.10
2024-04-16T14:51:15.274Z,2.20
2024-04-16T14:53:47.490Z,1.10
2024-04-16T14:56:18.103Z,0.80
2024-04-16T14:58:45.501Z,2.05
2024-04-16T15:01:12.977Z,1.65
2024-04-16T15:03:40.372Z,1.05
2024-04-16T15:06:08.215Z,1.40
2024-04-16T15:08:35.572Z,0.90
2024-04-16T15:11:03.035Z,1.50
2024-04-16T15:13:30.388Z,1.20
2024-04-16T15:15:58.563Z,1.23
2024-04-16T15:18:26.554Z,1.33
2024-04-16T15:20:54.345Z,1.30
2024-04-16T15:23:21.691Z,1.27
2024-04-16T15:25:49.210Z,1.60
2024-04-16T15:28:17.097Z,1.48
2024-04-16T15:30:44.511Z,1.50
2024-04-16T15:33:11.927Z,1.35
2024-04-16T15:35:50.239Z,1.58
2024-04-16T15:38:18.283Z,1.70
2024-04-16T15:40:45.788Z,1.73
2024-04-16T15:43:16.710Z,1.83
2024-04-16T15:45:45.546Z,1.73
2024-04-16T15:48:13.161Z,1.80
2024-04-16T15:50:41.291Z,1.15
2024-04-16T15:53:08.966Z,1.50
2024-04-16T15:55:36.515Z,1.67
2024-04-16T15:58:03.923Z,1.90
2024-04-16T16:00:31.310Z,1.70
2024-04-16T16:02:58.680Z,1.95
2024-04-16T16:05:26.122Z,1.80
2024-04-16T16:07:53.628Z,2.00
2024-04-16T16:10:21.051Z,2.10
2024-04-16T16:12:48.401Z,2.05
2024-04-16T16:15:16.414Z,1.63
2024-04-16T16:17:43.845Z,1.77
2024-04-16T16:20:11.368Z,1.70
2024-04-16T16:22:39.523Z,1.73
2024-04-16T16:25:07.889Z,1.70
2024-04-16T16:27:35.192Z,1.70
2024-04-16T16:30:02.474Z,1.50
2024-04-16T16:32:29.803Z,2.30
2024-04-16T16:35:09.769Z,1.67
2024-04-16T16:37:37.239Z,0.88
2024-04-16T16:40:06.164Z,1.35
2024-04-16T16:42:34.525Z,0.98
2024-04-16T16:45:05.019Z,1.13
2024-04-16T16:47:33.046Z,2.92
2024-04-16T16:50:00.750Z,1.63
2024-04-16T16:52:28.361Z,0.75
2024-04-16T16:54:55.733Z,1.02
2024-04-16T16:57:23.053Z,1.00
2024-04-16T16:59:50.376Z,1.20
2024-04-16T17:02:18.124Z,1.10
2024-04-16T17:04:45.828Z,1.20
2024-04-16T17:07:16.419Z,1.23
2024-04-16T17:09:43.776Z,1.48
2024-04-16T17:12:11.106Z,1.50
2024-04-16T17:14:40.861Z,1.27
2024-04-16T17:17:08.615Z,1.63
2024-04-16T17:19:35.997Z,1.20
2024-04-16T17:22:03.864Z,1.40
2024-04-16T17:24:31.171Z,1.33
2024-04-16T17:26:58.645Z,1.75
2024-04-16T17:29:26.408Z,1.25
2024-04-16T17:31:53.860Z,1.40
2024-04-16T17:34:21.470Z,1.20
2024-04-16T17:36:52.301Z,1.50
2024-04-16T17:39:19.622Z,1.60
2024-04-16T17:41:47.067Z,1.45
2024-04-16T17:44:14.483Z,1.40
2024-04-16T17:46:41.894Z,1.40
2024-04-16T17:49:09.293Z,1.83
2024-04-16T17:51:36.623Z,1.83
2024-04-16T17:54:04.713Z,1.50
2024-04-16T17:56:32.055Z,1.83
2024-04-16T17:59:01.413Z,1.52
2024-04-16T18:04:01.229Z,1.50
2024-04-16T18:06:29.522Z,1.70
2024-04-16T18:08:56.867Z,1.42
2024-04-16T18:11:24.259Z,8.13
2024-04-16T18:13:52.374Z,3.00
2024-04-16T18:16:19.810Z,3.63
2024-04-16T18:18:54.879Z,5.20
2024-04-16T18:21:22.223Z,5.03
2024-04-16T18:23:50.509Z,2.80
2024-04-16T18:26:17.886Z,2.30
2024-04-16T18:28:45.253Z,2.00
2024-04-16T18:31:12.566Z,1.67
2024-04-16T18:33:40.003Z,1.42
2024-04-16T18:36:07.571Z,0.85
2024-04-16T18:38:37.706Z,1.00
2024-04-16T18:41:06.669Z,1.48
2024-04-16T18:43:34.069Z,0.68
2024-04-16T18:46:02.074Z,2.60
2024-04-16T18:48:29.587Z,0.80
2024-04-16T18:50:57.025Z,0.30
2024-04-16T18:53:25.795Z,0.50
2024-04-16T18:55:54.392Z,0.80
2024-04-16T18:58:22.346Z,0.70
2024-04-16T19:00:50.901Z,1.17
2024-04-16T19:03:19.849Z,2.47
2024-04-16T19:05:50.580Z,1.52
2024-04-16T19:08:20.174Z,0.40
2024-04-16T19:10:47.529Z,0.60
2024-04-16T19:13:15.101Z,0.50
2024-04-16T19:15:42.455Z,6.38
2024-04-16T19:18:10.864Z,3.90
2024-04-16T19:20:38.378Z,2.10
2024-04-16T19:23:05.857Z,0.70
2024-04-16T19:25:33.298Z,9.27
2024-04-16T19:28:00.663Z,6.78
2024-04-16T19:30:28.024Z,2.47
2024-04-16T19:32:55.534Z,1.33
2024-04-16T19:35:22.923Z,1.25
2024-04-16T19:37:51.772Z,1.10
2024-04-16T19:40:19.332Z,0.90
2024-04-16T19:42:48.432Z,1.15
2024-04-16T19:45:16.080Z,0.77
2024-04-16T19:47:43.869Z,0.88
2024-04-16T19:50:11.347Z,0.98
2024-04-16T19:52:38.725Z,0.90
2024-04-16T19:55:07.338Z,1.27
2024-04-16T19:57:34.902Z,1.10
2024-04-16T20:00:05.992Z,1.15
2024-04-16T20:02:33.710Z,1.35
2024-04-16T20:05:01.174Z,1.50
2024-04-16T20:07:28.544Z,1.40
2024-04-16T20:09:56.094Z,2.17
2024-04-16T20:12:23.929Z,0.82
2024-04-16T20:14:51.324Z,1.13
2024-04-16T20:17:18.621Z,1.25
2024-04-16T20:19:46.073Z,1.15
2024-04-16T20:22:13.456Z,1.02
2024-04-16T20:24:40.781Z,1.13
2024-04-16T20:27:08.289Z,1.10
2024-04-16T20:29:36.273Z,0.88
2024-04-16T20:32:03.785Z,1.00
2024-04-16T20:34:40.064Z,1.05
2024-04-16T20:37:12.161Z,1.17
2024-04-16T20:39:39.600Z,1.10
2024-04-16T20:42:06.936Z,1.35
2024-04-16T20:44:34.282Z,1.00
2024-04-16T20:47:01.672Z,1.40
2024-04-16T20:49:29.026Z,1.00
2024-04-16T20:51:56.321Z,1.00
2024-04-16T20:54:23.636Z,1.25
2024-04-16T20:56:50.968Z,1.10
2024-04-16T20:59:18.312Z,1.23
2024-04-16T21:01:45.728Z,1.27
2024-04-16T21:04:13.094Z,1.40
2024-04-16T21:06:40.436Z,1.75
2024-04-16T21:09:07.736Z,1.45
2024-04-16T21:11:35.172Z,1.30
2024-04-16T21:14:02.552Z,1.35
2024-04-16T21:16:29.987Z,1.50
2024-04-16T21:18:57.297Z,1.52
2024-04-16T21:21:24.627Z,1.38
2024-04-16T21:23:53.090Z,1.75
2024-04-16T21:26:20.454Z,1.63
2024-04-16T21:28:47.798Z,1.50
2024-04-16T21:31:15.121Z,1.63
2024-04-16T21:33:42.473Z,1.65
2024-04-16T21:36:09.829Z,1.73
2024-04-16T21:38:38.304Z,1.92
2024-04-16T21:41:05.731Z,1.70
2024-04-16T21:43:33.071Z,1.35
2024-04-16T21:46:00.437Z,1.50
2024-04-16T21:48:27.802Z,1.52
2024-04-16T21:50:56.885Z,1.67
2024-04-16T21:53:25.009Z,1.95
2024-04-16T21:55:52.415Z,1.88
2024-04-16T21:58:19.866Z,1.40
2024-04-16T22:00:47.274Z,3.47
2024-04-16T22:03:14.605Z,1.70
2024-04-16T22:05:42.016Z,1.73
2024-04-16T22:08:09.325Z,2.00
2024-04-16T22:10:36.644Z,2.20
2024-04-16T22:13:04.068Z,1.92
2024-04-16T22:15:31.420Z,2.03
2024-04-16T22:17:58.787Z,1.95
2024-04-16T22:20:26.119Z,1.77
2024-04-16T22:22:53.474Z,1.73
2024-04-16T22:25:23.264Z,1.88
2024-04-16T22:27:50.653Z,1.73
2024-04-16T22:30:17.991Z,1.80
2024-04-16T22:32:46.966Z,1.70
2024-04-16T22:35:14.363Z,1.90
2024-04-16T22:37:41.756Z,1.80
2024-04-16T22:40:09.520Z,2.00
2024-04-16T22:42:37.200Z,2.00
2024-04-16T22:45:04.702Z,1.88
2024-04-16T22:47:32.041Z,2.05
2024-04-16T22:49:59.756Z,2.03
2024-04-16T22:52:30.316Z,2.17
2024-04-16T22:54:57.633Z,2.30
2024-04-16T22:57:24.923Z,2.28
2024-04-16T22:59:52.301Z,2.45
2024-04-16T23:02:19.861Z,2.22
2024-04-16T23:04:47.560Z,2.42
2024-04-16T23:07:14.982Z,2.45
2024-04-16T23:09:42.281Z,2.20
2024-04-16T23:12:10.080Z,2.40
2024-04-16T23:14:37.408Z,2.45
2024-04-16T23:17:04.781Z,2.55
2024-04-16T23:19:32.083Z,2.45
2024-04-16T23:21:59.393Z,3.05
2024-04-16T23:24:26.683Z,2.20
2024-04-16T23:26:53.973Z,2.20
2024-04-16T23:29:21.244Z,2.30
2024-04-16T23:31:48.632Z,2.30
2024-04-16T23:34:15.976Z,2.40
2024-04-16T23:36:43.283Z,2.30
2024-04-16T23:39:10.612Z,2.58
2024-04-16T23:41:37.912Z,2.58
2024-04-16T23:44:05.353Z,2.47
2024-04-16T23:46:32.671Z,2.35
2024-04-16T23:49:00.013Z,2.70
2024-04-16T23:51:27.297Z,2.67
2024-04-16T23:53:54.618Z,2.72
2024-04-16T23:56:21.941Z,3.05
2024-04-16T23:58:50.251Z,2.60
